Time;durP1;ratioP1;P1;durP2;ratioP2;P2;SDS_P1;SDS_P2;PMS_P1;PMS_P2;Temp;Humidity;BMP_temperature;BMP_pressure;BME280_temperature;BME280_humidity;BME280_pressure;Samples;Min_cycle;Max_cycle;Signal;HPM_P1;HPM_P2
2022/01/09 00:02:07;;;;;;;;;;;3.70;99.90;;;;;;5020086;28;19963;-73
2022/01/09 00:04:40;;;;;;;;;;;3.70;99.90;;;;;;5029386;28;19957;-69
2022/01/09 00:07:07;;;;;;;;;;;3.60;99.90;;;;;;5016510;28;19945;-71
2022/01/09 00:09:32;;;;;;;;;;;3.60;99.90;;;;;;5016930;28;19928;-71
2022/01/09 00:12:02;;;;;;;;;;;3.50;99.90;;;;;;5016624;28;19979;-71
2022/01/09 00:14:29;;;;;;;;;;;3.50;99.90;;;;;;5023443;28;19923;-71
2022/01/09 00:16:56;;;;;;;;;;;3.40;99.90;;;;;;5017158;28;20294;-70
2022/01/09 00:19:22;;;;;;;;;;;3.30;99.90;;;;;;5016172;28;19910;-71
2022/01/09 00:21:48;;;;;;;;;;;3.30;99.90;;;;;;5013238;28;19909;-71
2022/01/09 00:24:18;;;;;;;;;;;3.20;99.90;;;;;;5014608;28;19918;-70
2022/01/09 00:26:44;;;;;;;;;;;3.20;99.90;;;;;;5016987;28;19917;-71
2022/01/09 00:29:19;;;;;;;;;;;3.10;99.90;;;;;;5017002;28;19913;-71
2022/01/09 00:31:44;;;;;;;;;;;3.10;99.90;;;;;;5015143;28;19916;-70
2022/01/09 00:34:10;;;;;;;;;;;3.30;99.90;;;;;;5013282;28;19909;-70
2022/01/09 00:36:35;;;;;;;;;;;3.30;99.90;;;;;;5012456;28;19909;-72
2022/01/09 00:39:02;;;;;;;;;;;3.20;99.90;;;;;;5004300;28;20013;-71
2022/01/09 00:41:34;;;;;;;;;;;3.20;99.90;;;;;;5011189;28;19910;-70
2022/01/09 00:44:00;;;;;;;;;;;3.20;99.90;;;;;;5006817;28;19948;-70
2022/01/09 00:46:25;;;;;;;;;;;3.20;99.90;;;;;;5009635;28;19910;-71
2022/01/09 00:48:51;;;;;;;;;;;3.20;99.90;;;;;;5010165;28;20379;-71
2022/01/09 00:51:17;;;;;;;;;;;3.10;99.90;;;;;;5010497;28;20052;-71
2022/01/09 00:53:42;;;;;;;;;;;3.10;99.90;;;;;;5009355;28;20267;-70
2022/01/09 00:56:08;;;;;;;;;;;3.20;99.90;;;;;;5009490;28;19999;-71
2022/01/09 00:58:33;;;;;;;;;;;3.20;99.90;;;;;;5008458;28;19909;-70
2022/01/09 01:00:59;;;;;;;;;;;3.30;99.90;;;;;;5010262;28;19913;-71
2022/01/09 01:03:25;;;;;;;;;;;3.30;99.90;;;;;;5007744;28;19914;-71
2022/01/09 01:05:51;;;;;;;;;;;3.30;99.90;;;;;;5010602;28;19909;-71
2022/01/09 01:08:16;;;;;;;;;;;3.30;99.90;;;;;;5008962;28;19913;-71
2022/01/09 01:10:42;;;;;;;;;;;3.30;99.90;;;;;;5021312;28;19917;-70
2022/01/09 01:13:07;;;;;;;;;;;3.30;99.90;;;;;;5013735;28;19996;-71
2022/01/09 01:15:33;;;;;;;;;;;3.30;99.90;;;;;;5009963;28;19921;-70
2022/01/09 01:17:59;;;;;;;;;;;3.30;99.90;;;;;;5010581;28;19909;-70
2022/01/09 01:20:24;;;;;;;;;;;3.30;99.90;;;;;;5011917;28;19909;-70
2022/01/09 01:22:51;;;;;;;;;;;3.40;99.90;;;;;;5005771;28;19918;-70
2022/01/09 01:25:17;;;;;;;;;;;3.40;99.90;;;;;;5006819;28;19914;-70
2022/01/09 01:27:43;;;;;;;;;;;3.30;99.90;;;;;;5011324;28;19913;-70
2022/01/09 01:30:09;;;;;;;;;;;3.30;99.90;;;;;;5009013;28;19916;-70
2022/01/09 01:32:34;;;;;;;;;;;3.30;99.90;;;;;;5009555;28;20004;-70
2022/01/09 01:35:00;;;;;;;;;;;3.30;99.90;;;;;;5012446;28;20399;-69
2022/01/09 01:37:26;;;;;;;;;;;3.30;99.90;;;;;;5007531;28;19917;-71
2022/01/09 01:39:51;;;;;;;;;;;3.30;99.90;;;;;;5009574;28;19985;-71
2022/01/09 01:42:17;;;;;;;;;;;3.30;99.90;;;;;;5015929;28;19932;-71
2022/01/09 01:44:44;;;;;;;;;;;3.30;99.90;;;;;;5014872;28;19913;-70
2022/01/09 01:47:10;;;;;;;;;;;3.40;99.90;;;;;;5016327;28;19928;-70
2022/01/09 01:49:36;;;;;;;;;;;3.50;99.90;;;;;;5015618;28;19910;-70
2022/01/09 01:52:01;;;;;;;;;;;3.60;99.90;;;;;;5010562;28;19932;-70
2022/01/09 01:54:27;;;;;;;;;;;3.60;99.90;;;;;;5009614;28;20024;-69
2022/01/09 01:56:53;;;;;;;;;;;3.70;99.90;;;;;;5009672;28;19909;-70
2022/01/09 01:59:19;;;;;;;;;;;3.70;99.90;;;;;;5010327;28;20375;-69
2022/01/09 02:01:44;;;;;;;;;;;3.70;99.90;;;;;;5011452;28;20383;-69
2022/01/09 02:04:10;;;;;;;;;;;3.80;99.90;;;;;;5007632;28;20010;-70
2022/01/09 02:06:36;;;;;;;;;;;3.80;99.90;;;;;;5009553;28;19912;-70
2022/01/09 02:09:05;;;;;;;;;;;3.80;99.90;;;;;;5008569;28;19916;-70
2022/01/09 02:11:31;;;;;;;;;;;3.80;99.90;;;;;;5008986;28;19909;-71
2022/01/09 02:13:57;;;;;;;;;;;3.80;99.90;;;;;;5011204;28;19925;-70
2022/01/09 02:16:23;;;;;;;;;;;3.80;99.90;;;;;;5008924;28;19913;-70
2022/01/09 02:18:49;;;;;;;;;;;3.80;99.90;;;;;;5009672;28;19913;-70
2022/01/09 02:21:15;;;;;;;;;;;3.80;99.90;;;;;;5009285;28;19909;-70
2022/01/09 02:23:45;;;;;;;;;;;3.90;99.90;;;;;;5009847;28;19913;-70
2022/01/09 02:26:15;;;;;;;;;;;3.90;99.90;;;;;;5010844;28;19949;-69
2022/01/09 02:28:40;;;;;;;;;;;3.90;99.90;;;;;;5009132;28;19918;-69
2022/01/09 02:31:06;;;;;;;;;;;3.90;99.90;;;;;;5007212;28;19963;-70
2022/01/09 02:33:31;;;;;;;;;;;4.00;99.90;;;;;;5009083;28;19918;-69
2022/01/09 02:35:57;;;;;;;;;;;4.00;99.90;;;;;;5010042;28;19944;-70
2022/01/09 02:38:23;;;;;;;;;;;3.90;99.90;;;;;;5009371;28;20365;-70
2022/01/09 02:40:49;;;;;;;;;;;3.90;99.90;;;;;;5009387;28;19910;-70
2022/01/09 02:43:14;;;;;;;;;;;3.90;99.90;;;;;;5011879;28;19932;-70
2022/01/09 02:45:41;;;;;;;;;;;3.90;99.90;;;;;;5010242;28;19909;-69
2022/01/09 02:48:09;;;;;;;;;;;3.80;99.90;;;;;;5009359;28;20383;-70
2022/01/09 02:50:39;;;;;;;;;;;3.80;99.90;;;;;;5008837;28;19933;-69
2022/01/09 02:53:20;;;;;;;;;;;3.70;99.90;;;;;;5015299;28;20423;-70
2022/01/09 02:55:46;;;;;;;;;;;3.70;99.90;;;;;;5010247;28;19909;-70
2022/01/09 02:58:12;;;;;;;;;;;3.70;99.90;;;;;;5006294;28;19967;-71
2022/01/09 03:00:40;;;;;;;;;;;3.60;99.90;;;;;;5010511;28;19909;-71
2022/01/09 03:03:05;;;;;;;;;;;3.60;99.90;;;;;;5006826;28;19913;-71
2022/01/09 03:05:31;;;;;;;;;;;3.60;99.90;;;;;;5008834;28;19967;-70
2022/01/09 03:07:57;;;;;;;;;;;3.60;99.90;;;;;;5008510;28;20300;-69
2022/01/09 03:10:23;;;;;;;;;;;3.60;99.90;;;;;;5009380;28;19909;-69
2022/01/09 03:12:50;;;;;;;;;;;3.60;99.90;;;;;;5012958;28;19910;-71
2022/01/09 03:15:15;;;;;;;;;;;3.50;99.90;;;;;;5017260;28;19917;-69
2022/01/09 03:17:41;;;;;;;;;;;3.50;99.90;;;;;;5014077;28;19984;-70
2022/01/09 03:20:12;;;;;;;;;;;3.50;99.90;;;;;;5017050;28;19996;-69
2022/01/09 03:22:38;;;;;;;;;;;3.50;99.90;;;;;;5007752;28;19909;-69
2022/01/09 03:25:04;;;;;;;;;;;3.50;99.90;;;;;;5015317;28;20316;-70
2022/01/09 03:27:30;;;;;;;;;;;3.40;99.90;;;;;;5011216;28;20000;-71
2022/01/09 03:29:55;;;;;;;;;;;3.40;99.90;;;;;;5009143;28;19996;-69
2022/01/09 03:32:21;;;;;;;;;;;3.50;99.90;;;;;;5012338;28;20453;-70
2022/01/09 03:34:46;;;;;;;;;;;3.40;99.90;;;;;;5010519;28;19916;-70
2022/01/09 03:37:12;;;;;;;;;;;3.30;99.90;;;;;;5013697;28;19944;-70
2022/01/09 03:39:38;;;;;;;;;;;3.30;99.90;;;;;;5008829;28;19913;-71
2022/01/09 03:42:04;;;;;;;;;;;3.30;99.90;;;;;;5012245;28;19913;-70
2022/01/09 03:44:29;;;;;;;;;;;3.20;99.90;;;;;;5012990;28;19913;-71
2022/01/09 03:46:55;;;;;;;;;;;3.20;99.90;;;;;;5013009;28;19909;-71
2022/01/09 03:49:21;;;;;;;;;;;3.00;99.90;;;;;;5008392;28;19918;-69
2022/01/09 03:51:51;;;;;;;;;;;3.00;99.90;;;;;;5012313;28;20298;-70
2022/01/09 03:54:19;;;;;;;;;;;3.00;99.90;;;;;;5011318;28;19909;-71
2022/01/09 03:56:45;;;;;;;;;;;2.80;99.90;;;;;;5008816;28;19956;-69
2022/01/09 03:59:10;;;;;;;;;;;2.70;99.90;;;;;;5007692;28;19941;-69
2022/01/09 04:01:36;;;;;;;;;;;2.80;99.90;;;;;;5013918;28;20426;-69
2022/01/09 04:04:01;;;;;;;;;;;2.80;99.90;;;;;;5015195;28;19959;-69
2022/01/09 04:06:27;;;;;;;;;;;2.90;99.90;;;;;;5013761;28;19910;-70
2022/01/09 04:08:53;;;;;;;;;;;2.80;99.90;;;;;;5009255;28;19910;-71
2022/01/09 04:11:23;;;;;;;;;;;2.80;99.90;;;;;;5008738;28;19909;-69
2022/01/09 04:13:49;;;;;;;;;;;2.80;99.90;;;;;;5012415;28;20001;-69
2022/01/09 04:16:15;;;;;;;;;;;2.70;99.90;;;;;;5011325;28;19960;-69
2022/01/09 04:18:40;;;;;;;;;;;2.60;99.90;;;;;;5010844;28;19921;-68
2022/01/09 04:21:06;;;;;;;;;;;2.60;99.90;;;;;;5014448;28;19963;-70
2022/01/09 04:23:31;;;;;;;;;;;2.70;99.90;;;;;;5011514;28;19919;-70
2022/01/09 04:25:57;;;;;;;;;;;2.70;99.90;;;;;;5010802;28;19906;-70
2022/01/09 04:28:23;;;;;;;;;;;2.60;99.90;;;;;;5010264;28;19909;-70
2022/01/09 04:30:48;;;;;;;;;;;2.70;99.90;;;;;;5006737;28;19909;-70
2022/01/09 04:33:14;;;;;;;;;;;2.70;99.90;;;;;;5007746;28;19914;-70
2022/01/09 04:35:40;;;;;;;;;;;2.70;99.90;;;;;;5012130;28;20376;-71
2022/01/09 04:38:06;;;;;;;;;;;2.80;99.90;;;;;;5011543;28;19944;-70
2022/01/09 04:40:32;;;;;;;;;;;2.80;99.90;;;;;;5010529;28;19953;-70
2022/01/09 04:43:00;;;;;;;;;;;2.90;99.90;;;;;;5007655;28;19947;-69
2022/01/09 04:45:28;;;;;;;;;;;2.80;99.90;;;;;;5008089;28;19969;-70
2022/01/09 04:47:55;;;;;;;;;;;2.80;99.90;;;;;;5006762;28;19959;-70
2022/01/09 04:50:25;;;;;;;;;;;2.90;99.90;;;;;;5011652;28;19972;-71
2022/01/09 04:52:53;;;;;;;;;;;3.00;99.90;;;;;;5010294;28;19915;-69
2022/01/09 04:55:19;;;;;;;;;;;3.00;99.90;;;;;;5010725;28;19957;-69
2022/01/09 04:57:45;;;;;;;;;;;3.10;99.90;;;;;;5009412;28;19951;-69
2022/01/09 05:00:11;;;;;;;;;;;3.20;99.90;;;;;;5007148;28;19993;-69
2022/01/09 05:02:36;;;;;;;;;;;3.10;99.90;;;;;;5010343;28;19910;-69
2022/01/09 05:05:03;;;;;;;;;;;3.20;99.90;;;;;;5010744;28;19932;-71
2022/01/09 05:07:29;;;;;;;;;;;3.20;99.90;;;;;;5010594;28;19953;-70
2022/01/09 05:09:54;;;;;;;;;;;3.20;99.90;;;;;;5010781;28;19949;-69
2022/01/09 05:12:20;;;;;;;;;;;3.20;99.90;;;;;;5011649;28;20885;-69
2022/01/09 05:14:45;;;;;;;;;;;3.20;99.90;;;;;;5015274;28;19920;-69
2022/01/09 05:17:11;;;;;;;;;;;3.20;99.90;;;;;;5009164;28;19909;-69
2022/01/09 05:19:37;;;;;;;;;;;3.30;99.90;;;;;;5012134;28;19909;-70
2022/01/09 05:22:03;;;;;;;;;;;3.30;99.90;;;;;;5011474;28;19909;-71
2022/01/09 05:24:29;;;;;;;;;;;3.40;99.90;;;;;;5013292;28;19913;-71
2022/01/09 05:26:54;;;;;;;;;;;3.50;99.90;;;;;;5013282;28;19932;-70
2022/01/09 05:29:21;;;;;;;;;;;3.50;99.90;;;;;;5013506;28;19916;-70
2022/01/09 05:31:48;;;;;;;;;;;3.50;99.90;;;;;;5013390;28;19967;-71
2022/01/09 05:34:14;;;;;;;;;;;3.50;99.90;;;;;;5007584;28;19935;-70
2022/01/09 05:36:40;;;;;;;;;;;3.50;99.90;;;;;;5012552;28;19909;-69
2022/01/09 05:39:05;;;;;;;;;;;3.50;99.90;;;;;;5009021;28;19976;-69
2022/01/09 05:41:31;;;;;;;;;;;3.50;99.90;;;;;;5010650;28;19959;-69
2022/01/09 05:43:56;;;;;;;;;;;3.50;99.90;;;;;;5014297;28;20008;-70
2022/01/09 05:46:22;;;;;;;;;;;3.50;99.90;;;;;;5012486;28;19909;-70
2022/01/09 05:48:47;;;;;;;;;;;3.50;99.90;;;;;;5009413;28;19909;-70
2022/01/09 05:51:13;;;;;;;;;;;3.50;99.90;;;;;;5011038;28;19940;-70
2022/01/09 05:53:39;;;;;;;;;;;3.40;99.90;;;;;;5010672;28;19920;-70
2022/01/09 05:56:04;;;;;;;;;;;3.40;99.90;;;;;;5010075;28;19941;-71
2022/01/09 05:58:31;;;;;;;;;;;3.40;99.90;;;;;;5010966;28;19913;-69
2022/01/09 06:00:56;;;;;;;;;;;3.40;99.90;;;;;;5007906;28;19964;-69
2022/01/09 06:03:22;;;;;;;;;;;3.40;99.90;;;;;;5008931;28;19917;-69
2022/01/09 06:05:47;;;;;;;;;;;3.40;99.90;;;;;;5005481;28;19971;-70
2022/01/09 06:08:13;;;;;;;;;;;3.30;99.90;;;;;;5006895;28;19913;-70
2022/01/09 06:10:38;;;;;;;;;;;3.30;99.90;;;;;;5012121;28;19910;-71
2022/01/09 06:13:04;;;;;;;;;;;3.30;99.90;;;;;;5009742;28;20363;-71
2022/01/09 06:15:29;;;;;;;;;;;3.30;99.90;;;;;;5011297;28;19987;-71
2022/01/09 06:17:55;;;;;;;;;;;3.30;99.90;;;;;;5007201;28;19963;-69
2022/01/09 06:20:20;;;;;;;;;;;3.30;99.90;;;;;;5007710;28;19917;-69
2022/01/09 06:22:46;;;;;;;;;;;3.30;99.90;;;;;;5006146;28;20355;-70
2022/01/09 06:25:12;;;;;;;;;;;3.30;99.90;;;;;;5009356;28;20028;-70
2022/01/09 06:27:37;;;;;;;;;;;3.20;99.90;;;;;;5009027;28;19909;-70
2022/01/09 06:30:05;;;;;;;;;;;3.30;99.90;;;;;;5008599;28;19914;-70
2022/01/09 06:32:31;;;;;;;;;;;3.40;99.90;;;;;;5006962;28;20405;-71
2022/01/09 06:34:56;;;;;;;;;;;3.50;99.90;;;;;;5006258;28;20047;-70
2022/01/09 06:37:22;;;;;;;;;;;3.50;99.90;;;;;;5009986;28;19984;-71
2022/01/09 06:39:48;;;;;;;;;;;3.60;99.90;;;;;;5009249;28;19984;-70
2022/01/09 06:42:17;;;;;;;;;;;3.60;99.90;;;;;;5006531;28;20384;-71
2022/01/09 06:44:42;;;;;;;;;;;3.60;99.90;;;;;;5009609;28;19913;-70
2022/01/09 06:47:08;;;;;;;;;;;3.70;99.90;;;;;;5007104;28;19932;-70
2022/01/09 06:49:35;;;;;;;;;;;3.80;99.90;;;;;;5013412;28;19999;-72
2022/01/09 06:52:01;;;;;;;;;;;3.90;99.90;;;;;;5009709;28;19909;-70
2022/01/09 06:54:27;;;;;;;;;;;3.90;99.90;;;;;;5010211;28;20387;-70
2022/01/09 06:56:52;;;;;;;;;;;3.90;99.90;;;;;;5012896;28;19961;-69
2022/01/09 06:59:18;;;;;;;;;;;3.90;99.90;;;;;;5010807;28;19985;-69
2022/01/09 07:01:43;;;;;;;;;;;3.90;99.90;;;;;;5012063;28;19913;-69
2022/01/09 07:04:09;;;;;;;;;;;3.90;99.90;;;;;;5013320;28;19924;-71
2022/01/09 07:06:35;;;;;;;;;;;4.00;99.90;;;;;;5010611;28;19933;-70
2022/01/09 07:09:01;;;;;;;;;;;4.00;99.90;;;;;;5011177;28;20338;-70
2022/01/09 07:11:26;;;;;;;;;;;4.00;99.90;;;;;;5014321;28;19981;-69
2022/01/09 07:13:52;;;;;;;;;;;4.00;99.90;;;;;;5011200;28;20270;-70
2022/01/09 07:16:17;;;;;;;;;;;4.10;99.90;;;;;;5014377;28;19916;-71
2022/01/09 07:18:43;;;;;;;;;;;4.10;99.90;;;;;;5012059;28;20012;-70
2022/01/09 07:21:09;;;;;;;;;;;4.20;99.90;;;;;;5013853;28;19972;-69
2022/01/09 07:23:34;;;;;;;;;;;4.20;99.90;;;;;;5011893;28;19913;-69
2022/01/09 07:26:00;;;;;;;;;;;4.20;99.90;;;;;;5011386;28;19910;-70
2022/01/09 07:28:25;;;;;;;;;;;4.20;99.90;;;;;;5013500;28;19959;-70
2022/01/09 07:30:51;;;;;;;;;;;4.30;99.90;;;;;;5015737;28;19996;-68
2022/01/09 07:33:17;;;;;;;;;;;4.30;99.90;;;;;;5011087;28;19909;-69
2022/01/09 07:35:42;;;;;;;;;;;4.30;99.90;;;;;;5014976;28;19910;-69
2022/01/09 07:38:08;;;;;;;;;;;4.30;99.90;;;;;;5009526;28;19905;-69
2022/01/09 07:40:33;;;;;;;;;;;4.30;99.90;;;;;;5011390;28;19920;-69
2022/01/09 07:42:59;;;;;;;;;;;4.30;99.90;;;;;;5013064;28;20012;-70
2022/01/09 07:45:27;;;;;;;;;;;4.30;99.90;;;;;;5007839;28;20004;-70
2022/01/09 07:47:54;;;;;;;;;;;4.30;99.90;;;;;;5012500;28;19909;-70
2022/01/09 07:50:19;;;;;;;;;;;4.30;99.90;;;;;;5011967;28;19909;-69
2022/01/09 07:52:45;;;;;;;;;;;4.30;99.90;;;;;;5011889;28;19906;-70
2022/01/09 07:55:11;;;;;;;;;;;4.40;99.90;;;;;;5011355;28;19913;-71
2022/01/09 07:57:37;;;;;;;;;;;4.50;99.90;;;;;;5011889;28;20362;-70
2022/01/09 08:00:06;;;;;;;;;;;4.50;99.90;;;;;;5002560;28;19909;-72
2022/01/09 08:02:32;;;;;;;;;;;4.60;99.90;;;;;;5009730;28;20001;-70
2022/01/09 08:04:58;;;;;;;;;;;4.60;99.90;;;;;;5005293;28;20000;-70
2022/01/09 08:07:23;;;;;;;;;;;4.70;99.90;;;;;;5008502;28;19913;-70
2022/01/09 08:09:49;;;;;;;;;;;4.70;99.90;;;;;;5013293;28;20413;-72
2022/01/09 08:12:15;;;;;;;;;;;4.80;99.90;;;;;;5010423;28;19964;-71
2022/01/09 08:14:41;;;;;;;;;;;4.80;99.90;;;;;;5004216;28;20000;-72
2022/01/09 08:17:06;;;;;;;;;;;4.70;99.90;;;;;;5005657;28;19916;-71
2022/01/09 08:19:32;;;;;;;;;;;4.70;99.90;;;;;;5004680;28;19914;-69
2022/01/09 08:21:58;;;;;;;;;;;4.70;99.90;;;;;;5008784;28;19992;-69
2022/01/09 08:24:24;;;;;;;;;;;4.70;99.90;;;;;;5012266;28;19913;-71
2022/01/09 08:26:50;;;;;;;;;;;4.80;99.90;;;;;;5012126;28;20004;-71
2022/01/09 08:29:16;;;;;;;;;;;4.80;99.90;;;;;;5008683;28;20427;-71
2022/01/09 08:31:42;;;;;;;;;;;4.80;99.90;;;;;;5011643;28;20373;-70
2022/01/09 08:34:08;;;;;;;;;;;4.90;99.90;;;;;;5009403;28;20390;-70
2022/01/09 08:36:33;;;;;;;;;;;5.00;99.90;;;;;;5012994;28;19909;-70
2022/01/09 08:38:59;;;;;;;;;;;5.10;99.90;;;;;;5010398;28;19916;-71
2022/01/09 08:41:24;;;;;;;;;;;5.20;99.90;;;;;;5010574;28;19991;-70
2022/01/09 08:43:50;;;;;;;;;;;5.20;99.90;;;;;;5012553;28;20001;-70
2022/01/09 08:46:15;;;;;;;;;;;5.20;99.90;;;;;;5016546;28;19914;-69
2022/01/09 08:48:41;;;;;;;;;;;5.20;99.90;;;;;;5007425;28;20232;-70
2022/01/09 08:51:07;;;;;;;;;;;5.30;99.90;;;;;;5007944;28;19916;-69
2022/01/09 08:53:35;;;;;;;;;;;5.30;99.90;;;;;;5006148;28;19968;-70
2022/01/09 08:56:04;;;;;;;;;;;5.60;99.90;;;;;;5003930;28;19910;-70
2022/01/09 08:58:30;;;;;;;;;;;5.90;99.90;;;;;;5007103;28;19948;-70
2022/01/09 09:00:55;;;;;;;;;;;6.10;99.90;;;;;;4999704;28;20295;-71
2022/01/09 09:03:22;;;;;;;;;;;6.20;99.90;;;;;;5005697;28;19984;-70
2022/01/09 09:05:48;;;;;;;;;;;6.20;99.90;;;;;;5000359;28;19918;-70
2022/01/09 09:08:13;;;;;;;;;;;6.20;99.90;;;;;;5008418;28;19928;-70
2022/01/09 09:10:39;;;;;;;;;;;6.30;99.90;;;;;;5005805;28;19909;-70
2022/01/09 09:13:05;;;;;;;;;;;6.40;99.90;;;;;;5004355;28;19957;-71
2022/01/09 09:15:30;;;;;;;;;;;6.70;99.90;;;;;;5001931;28;20330;-70
2022/01/09 09:17:56;;;;;;;;;;;6.80;99.90;;;;;;5004585;28;20515;-70
2022/01/09 09:20:22;;;;;;;;;;;6.90;99.90;;;;;;5006504;28;19921;-70
2022/01/09 09:22:48;;;;;;;;;;;6.80;99.90;;;;;;5002389;28;19909;-65
2022/01/09 09:25:14;;;;;;;;;;;6.60;99.90;;;;;;5007565;28;20410;-65
2022/01/09 09:27:39;;;;;;;;;;;6.40;99.90;;;;;;5006597;28;19913;-66
2022/01/09 09:30:05;;;;;;;;;;;6.20;99.90;;;;;;5008329;28;19992;-65
2022/01/09 09:32:31;;;;;;;;;;;6.10;99.90;;;;;;5000192;28;20522;-66
2022/01/09 09:34:57;;;;;;;;;;;6.00;99.90;;;;;;5005747;28;19910;-66
2022/01/09 09:37:23;;;;;;;;;;;6.00;99.90;;;;;;5003018;28;20464;-67
2022/01/09 09:39:51;;;;;;;;;;;5.90;99.90;;;;;;5003783;28;19956;-65
2022/01/09 09:42:17;;;;;;;;;;;5.90;99.90;;;;;;5003113;28;19906;-65
2022/01/09 09:44:42;;;;;;;;;;;5.90;99.90;;;;;;5006929;28;20396;-65
2022/01/09 09:47:09;;;;;;;;;;;6.00;99.90;;;;;;5011681;28;19955;-65
2022/01/09 09:49:34;;;;;;;;;;;6.10;99.90;;;;;;5010014;28;20008;-66
2022/01/09 09:52:00;;;;;;;;;;;6.20;99.90;;;;;;5015751;28;19941;-65
2022/01/09 09:54:26;;;;;;;;;;;6.30;99.90;;;;;;5010422;28;19916;-66
2022/01/09 09:56:52;;;;;;;;;;;6.30;99.90;;;;;;5009635;28;19906;-70
2022/01/09 09:59:34;;;;;;;;;;;6.30;99.90;;;;;;5003713;28;20390;-68
2022/01/09 10:01:59;;;;;;;;;;;6.30;99.90;;;;;;5000907;28;19913;-70
2022/01/09 10:04:25;;;;;;;;;;;6.40;99.90;;;;;;5007529;28;20506;-69
2022/01/09 10:06:51;;;;;;;;;;;6.40;99.90;;;;;;5003841;28;19918;-70
2022/01/09 10:09:18;;;;;;;;;;;6.40;99.90;;;;;;5004001;28;20009;-70
2022/01/09 10:11:51;;;;;;;;;;;6.60;99.90;;;;;;5005790;28;20364;-70
2022/01/09 10:14:35;;;;;;;;;;;6.70;99.90;;;;;;4999892;28;19914;-70
2022/01/09 10:17:18;;;;;;;;;;;6.90;99.90;;;;;;5010183;28;19909;-69
2022/01/09 10:19:47;;;;;;;;;;;7.10;99.90;;;;;;5008802;28;19915;-70
2022/01/09 10:22:25;;;;;;;;;;;7.10;99.90;;;;;;5007473;28;20292;-70
2022/01/09 10:24:51;;;;;;;;;;;7.10;99.90;;;;;;5002267;28;19991;-73
2022/01/09 10:27:38;;;;;;;;;;;7.00;99.90;;;;;;5003468;28;19905;-70
2022/01/09 10:30:04;;;;;;;;;;;7.00;99.90;;;;;;5009169;28;20280;-71
2022/01/09 10:32:31;;;;;;;;;;;7.10;99.90;;;;;;5009563;28;20299;-71
2022/01/09 10:35:08;;;;;;;;;;;7.20;99.90;;;;;;5007074;28;19909;-70
2022/01/09 10:37:35;;;;;;;;;;;7.20;99.90;;;;;;5009961;28;19960;-69
2022/01/09 10:40:01;;;;;;;;;;;7.30;99.90;;;;;;5010055;28;20501;-69
2022/01/09 10:42:27;;;;;;;;;;;7.30;99.90;;;;;;5006205;28;20486;-71
2022/01/09 10:44:53;;;;;;;;;;;7.40;99.90;;;;;;5010405;28;19924;-69
2022/01/09 10:47:18;;;;;;;;;;;7.50;99.90;;;;;;5010534;28;19906;-69
2022/01/09 10:49:51;;;;;;;;;;;7.50;99.90;;;;;;5011619;28;19913;-70
2022/01/09 10:52:22;;;;;;;;;;;7.50;99.90;;;;;;5009197;28;19987;-70
2022/01/09 10:54:49;;;;;;;;;;;7.50;99.90;;;;;;5012580;28;19980;-70
2022/01/09 10:57:15;;;;;;;;;;;7.60;99.90;;;;;;5010922;28;19968;-70
2022/01/09 10:59:41;;;;;;;;;;;7.60;99.90;;;;;;5010952;28;19910;-68
2022/01/09 11:02:06;;;;;;;;;;;7.50;99.90;;;;;;5009854;28;19912;-69
2022/01/09 11:04:32;;;;;;;;;;;7.50;99.90;;;;;;5015925;28;19964;-69
2022/01/09 11:06:59;;;;;;;;;;;7.50;99.90;;;;;;5008073;28;20433;-69
2022/01/09 11:09:27;;;;;;;;;;;7.40;99.90;;;;;;5010579;28;19956;-70
2022/01/09 11:11:53;;;;;;;;;;;7.30;99.90;;;;;;5006065;28;19905;-70
2022/01/09 11:14:23;;;;;;;;;;;7.20;99.90;;;;;;5004904;28;20303;-68
2022/01/09 11:16:54;;;;;;;;;;;7.20;99.90;;;;;;5004376;28;19949;-69
2022/01/09 11:19:26;;;;;;;;;;;7.30;99.90;;;;;;5009844;28;19906;-69
2022/01/09 11:21:55;;;;;;;;;;;7.30;99.90;;;;;;5009250;28;19956;-70
2022/01/09 11:24:35;;;;;;;;;;;7.50;99.90;;;;;;5008255;28;20052;-70
2022/01/09 11:27:06;;;;;;;;;;;7.70;99.90;;;;;;5010790;28;19963;-70
2022/01/09 11:29:38;;;;;;;;;;;7.60;99.90;;;;;;5007326;28;19913;-69
2022/01/09 11:32:11;;;;;;;;;;;7.50;99.90;;;;;;5009013;28;19968;-69
2022/01/09 11:34:42;;;;;;;;;;;7.30;99.90;;;;;;5011502;28;20016;-70
2022/01/09 11:37:20;;;;;;;;;;;7.30;99.90;;;;;;5013369;28;19916;-69
2022/01/09 11:39:46;;;;;;;;;;;7.40;99.90;;;;;;5007730;28;19909;-70
2022/01/09 11:42:13;;;;;;;;;;;7.40;99.90;;;;;;5012288;28;19996;-70
2022/01/09 11:44:45;;;;;;;;;;;7.50;99.90;;;;;;5006097;28;19979;-70
2022/01/09 11:47:10;;;;;;;;;;;7.70;99.90;;;;;;5014068;28;19968;-70
2022/01/09 11:49:38;;;;;;;;;;;7.70;99.90;;;;;;5012235;28;20283;-69
2022/01/09 11:52:04;;;;;;;;;;;7.70;99.90;;;;;;5015827;28;19913;-69
2022/01/09 11:54:45;;;;;;;;;;;7.70;99.90;;;;;;5012129;28;20008;-70
2022/01/09 11:57:14;;;;;;;;;;;7.80;99.90;;;;;;5011899;28;19936;-68
2022/01/09 11:59:45;;;;;;;;;;;7.90;99.90;;;;;;5012312;28;19906;-69
2022/01/09 12:02:13;;;;;;;;;;;8.00;99.90;;;;;;5012926;28;19905;-68
2022/01/09 12:04:45;;;;;;;;;;;7.90;99.90;;;;;;5010421;28;20276;-68
2022/01/09 12:07:12;;;;;;;;;;;8.00;99.90;;;;;;5010595;28;19943;-68
2022/01/09 12:09:41;;;;;;;;;;;8.10;99.90;;;;;;5013489;28;19909;-70
2022/01/09 12:12:10;;;;;;;;;;;8.10;99.90;;;;;;5011251;28;20354;-68
2022/01/09 12:14:42;;;;;;;;;;;8.20;99.90;;;;;;5015666;28;19917;-68
2022/01/09 12:17:32;;;;;;;;;;;8.40;99.90;;;;;;5012628;28;20344;-70
2022/01/09 12:20:10;;;;;;;;;;;8.50;99.90;;;;;;5002960;28;19906;-68
2022/01/09 12:25:08;;;;;;;;;;;8.60;99.90;;;;;;5013451;28;19909;-69
2022/01/09 12:27:43;;;;;;;;;;;8.60;99.90;;;;;;5012660;28;20383;-68
2022/01/09 12:30:10;;;;;;;;;;;8.40;99.90;;;;;;5012898;28;19909;-70
2022/01/09 12:32:39;;;;;;;;;;;8.20;99.90;;;;;;5011633;28;19913;-68
2022/01/09 12:35:11;;;;;;;;;;;8.10;99.90;;;;;;5011096;28;19979;-70
2022/01/09 12:37:37;;;;;;;;;;;7.90;99.90;;;;;;5013625;28;19905;-68
2022/01/09 12:40:03;;;;;;;;;;;7.60;99.90;;;;;;5012892;28;19912;-68
2022/01/09 12:42:30;;;;;;;;;;;7.50;99.90;;;;;;5012934;28;19959;-70
2022/01/09 12:44:56;;;;;;;;;;;7.40;99.90;;;;;;5010804;28;20283;-70
2022/01/09 12:47:22;;;;;;;;;;;7.40;99.90;;;;;;5010486;28;19912;-69
2022/01/09 12:49:47;;;;;;;;;;;7.50;99.90;;;;;;5011866;28;19909;-71
2022/01/09 12:52:20;;;;;;;;;;;7.50;99.90;;;;;;5010777;28;19917;-68
2022/01/09 12:54:45;;;;;;;;;;;7.60;99.90;;;;;;5010281;28;19951;-70
2022/01/09 12:57:11;;;;;;;;;;;7.70;99.90;;;;;;5012027;28;19941;-70
2022/01/09 12:59:37;;;;;;;;;;;7.70;99.90;;;;;;5008053;28;19939;-70
2022/01/09 13:02:10;;;;;;;;;;;7.60;99.90;;;;;;5006936;28;19917;-71
2022/01/09 13:04:35;;;;;;;;;;;7.70;99.90;;;;;;5009573;28;19920;-69
2022/01/09 13:07:01;;;;;;;;;;;7.80;99.90;;;;;;5013209;28;19906;-69
2022/01/09 13:09:28;;;;;;;;;;;7.90;99.90;;;;;;5007579;28;19909;-70
2022/01/09 13:11:54;;;;;;;;;;;7.90;99.90;;;;;;5005914;28;20346;-69
2022/01/09 13:14:19;;;;;;;;;;;7.90;99.90;;;;;;5006290;28;20008;-68
2022/01/09 13:16:45;;;;;;;;;;;7.90;99.90;;;;;;5002304;28;19933;-69
2022/01/09 13:19:11;;;;;;;;;;;7.90;99.90;;;;;;5005665;28;19917;-68
2022/01/09 13:21:39;;;;;;;;;;;7.60;99.90;;;;;;5004695;28;19949;-69
2022/01/09 13:24:06;;;;;;;;;;;7.20;99.90;;;;;;5006229;28;19971;-69
2022/01/09 13:26:44;;;;;;;;;;;6.80;99.90;;;;;;5013827;28;19936;-70
2022/01/09 13:29:11;;;;;;;;;;;6.60;99.90;;;;;;5005824;28;19906;-70
2022/01/09 13:31:38;;;;;;;;;;;6.60;99.90;;;;;;5005259;28;19943;-69
2022/01/09 13:34:06;;;;;;;;;;;6.60;99.90;;;;;;5013578;28;19948;-68
2022/01/09 13:36:31;;;;;;;;;;;6.70;99.90;;;;;;5011855;28;20339;-69
2022/01/09 13:38:57;;;;;;;;;;;6.80;99.90;;;;;;5006853;28;19909;-69
2022/01/09 13:41:23;;;;;;;;;;;6.80;99.90;;;;;;5006257;28;19909;-71
2022/01/09 13:43:49;;;;;;;;;;;6.60;99.90;;;;;;5005210;28;19914;-69
2022/01/09 13:46:15;;;;;;;;;;;6.60;99.90;;;;;;5007138;28;20000;-69
2022/01/09 13:48:49;;;;;;;;;;;6.50;99.90;;;;;;5003213;28;20335;-68
2022/01/09 13:51:15;;;;;;;;;;;6.60;99.90;;;;;;5005118;28;20423;-69
2022/01/09 13:53:41;;;;;;;;;;;6.70;99.90;;;;;;5008507;28;20454;-68
2022/01/09 13:56:15;;;;;;;;;;;6.60;99.90;;;;;;5005035;28;20016;-68
2022/01/09 13:58:41;;;;;;;;;;;6.40;99.90;;;;;;5001225;28;19910;-68
2022/01/09 14:01:06;;;;;;;;;;;6.30;99.90;;;;;;5005285;28;19909;-69
2022/01/09 14:03:32;;;;;;;;;;;6.30;99.90;;;;;;5000521;28;20363;-69
2022/01/09 14:05:58;;;;;;;;;;;6.30;99.90;;;;;;5009363;28;19916;-69
2022/01/09 14:08:34;;;;;;;;;;;6.30;99.90;;;;;;5006280;28;19910;-70
2022/01/09 14:11:04;;;;;;;;;;;6.30;99.90;;;;;;5004741;28;19916;-68
2022/01/09 14:13:36;;;;;;;;;;;6.20;99.90;;;;;;5001686;28;20405;-68
2022/01/09 14:16:11;;;;;;;;;;;6.20;99.90;;;;;;5003869;28;19913;-71
2022/01/09 14:18:38;;;;;;;;;;;6.10;99.90;;;;;;5003679;28;19909;-70
2022/01/09 14:21:10;;;;;;;;;;;6.10;99.90;;;;;;5004219;28;20276;-69
2022/01/09 14:23:39;;;;;;;;;;;6.10;99.90;;;;;;5001180;28;19910;-69
2022/01/09 14:26:10;;;;;;;;;;;6.20;99.90;;;;;;5006333;28;19906;-69
2022/01/09 14:28:36;;;;;;;;;;;6.20;99.90;;;;;;5008870;28;19910;-69
2022/01/09 14:31:05;;;;;;;;;;;6.30;99.90;;;;;;5006990;28;19918;-68
2022/01/09 14:33:31;;;;;;;;;;;6.40;99.90;;;;;;5002102;28;19909;-69